sensor_id;sensor_type;location;lat;lon;timestamp;temperature;humidity
25112;DHT22;13092;51.996;4.458;2023-06-22T00:01:35;20.20;99.90
25112;DHT22;13092;51.996;4.458;2023-06-22T00:04:04;20.20;99.90
25112;DHT22;13092;51.996;4.458;2023-06-22T00:06:32;20.10;99.90
25112;DHT22;13092;51.996;4.458;2023-06-22T00:09:03;20.00;99.90
25112;DHT22;13092;51.996;4.458;2023-06-22T00:11:33;20.00;99.90
25112;DHT22;13092;51.996;4.458;2023-06-22T00:14:02;19.90;99.90
25112;DHT22;13092;51.996;4.458;2023-06-22T00:16:32;20.00;99.90
25112;DHT22;13092;51.996;4.458;2023-06-22T00:19:00;20.00;99.90
25112;DHT22;13092;51.996;4.458;2023-06-22T00:21:30;20.00;99.90
25112;DHT22;13092;51.996;4.458;2023-06-22T00:23:58;20.10;99.90
25112;DHT22;13092;51.996;4.458;2023-06-22T00:26:34;20.10;99.90
25112;DHT22;13092;51.996;4.458;2023-06-22T00:29:02;20.10;99.90
25112;DHT22;13092;51.996;4.458;2023-06-22T00:31:30;19.90;99.90
25112;DHT22;13092;51.996;4.458;2023-06-22T00:33:58;20.00;99.90
25112;DHT22;13092;51.996;4.458;2023-06-22T00:36:27;19.90;99.90
25112;DHT22;13092;51.996;4.458;2023-06-22T00:38:56;19.80;99.90
25112;DHT22;13092;51.996;4.458;2023-06-22T00:41:24;19.80;99.90
25112;DHT22;13092;51.996;4.458;2023-06-22T00:43:56;19.70;99.90
25112;DHT22;13092;51.996;4.458;2023-06-22T00:46:25;19.70;99.90
25112;DHT22;13092;51.996;4.458;2023-06-22T00:48:54;19.60;99.90
25112;DHT22;13092;51.996;4.458;2023-06-22T00:51:24;19.30;99.90
25112;DHT22;13092;51.996;4.458;2023-06-22T00:53:54;19.50;99.90
25112;DHT22;13092;51.996;4.458;2023-06-22T00:56:23;19.40;99.90
25112;DHT22;13092;51.996;4.458;2023-06-22T00:58:53;19.40;99.90
25112;DHT22;13092;51.996;4.458;2023-06-22T01:01:26;19.40;99.90
25112;DHT22;13092;51.996;4.458;2023-06-22T01:03:55;19.20;99.90
25112;DHT22;13092;51.996;4.458;2023-06-22T01:06:29;19.30;99.90
25112;DHT22;13092;51.996;4.458;2023-06-22T01:09:06;19.20;99.90
25112;DHT22;13092;51.996;4.458;2023-06-22T01:11:42;19.20;99.90
25112;DHT22;13092;51.996;4.458;2023-06-22T01:14:20;19.20;99.90
25112;DHT22;13092;51.996;4.458;2023-06-22T01:16:56;19.20;99.90
25112;DHT22;13092;51.996;4.458;2023-06-22T01:19:35;19.10;99.90
25112;DHT22;13092;51.996;4.458;2023-06-22T01:22:08;19.00;99.90
25112;DHT22;13092;51.996;4.458;2023-06-22T01:24:55;19.00;99.90
25112;DHT22;13092;51.996;4.458;2023-06-22T01:27:33;19.00;99.90
25112;DHT22;13092;51.996;4.458;2023-06-22T01:30:06;18.90;99.90
25112;DHT22;13092;51.996;4.458;2023-06-22T01:32:38;18.90;99.90
25112;DHT22;13092;51.996;4.458;2023-06-22T01:35:10;18.80;99.90
25112;DHT22;13092;51.996;4.458;2023-06-22T01:37:39;18.90;99.90
25112;DHT22;13092;51.996;4.458;2023-06-22T01:40:08;18.80;99.90
25112;DHT22;13092;51.996;4.458;2023-06-22T01:42:37;18.80;99.90
25112;DHT22;13092;51.996;4.458;2023-06-22T01:45:12;18.70;99.90
25112;DHT22;13092;51.996;4.458;2023-06-22T01:47:42;18.70;99.90
25112;DHT22;13092;51.996;4.458;2023-06-22T01:50:11;18.80;99.90
25112;DHT22;13092;51.996;4.458;2023-06-22T01:52:39;18.80;99.90
25112;DHT22;13092;51.996;4.458;2023-06-22T01:55:08;18.90;99.90
25112;DHT22;13092;51.996;4.458;2023-06-22T01:57:37;18.90;99.90
25112;DHT22;13092;51.996;4.458;2023-06-22T02:00:10;18.90;99.90
25112;DHT22;13092;51.996;4.458;2023-06-22T02:02:52;18.90;99.90
25112;DHT22;13092;51.996;4.458;2023-06-22T02:05:34;18.90;99.90
25112;DHT22;13092;51.996;4.458;2023-06-22T02:08:08;18.80;99.90
25112;DHT22;13092;51.996;4.458;2023-06-22T02:10:38;18.80;99.90
25112;DHT22;13092;51.996;4.458;2023-06-22T02:13:09;18.90;99.90
25112;DHT22;13092;51.996;4.458;2023-06-22T02:15:40;18.90;99.90
25112;DHT22;13092;51.996;4.458;2023-06-22T02:18:09;18.90;99.90
25112;DHT22;13092;51.996;4.458;2023-06-22T02:20:38;18.90;99.90
25112;DHT22;13092;51.996;4.458;2023-06-22T02:23:07;18.90;99.90
25112;DHT22;13092;51.996;4.458;2023-06-22T02:25:35;18.80;99.90
25112;DHT22;13092;51.996;4.458;2023-06-22T02:28:07;18.90;99.90
25112;DHT22;13092;51.996;4.458;2023-06-22T02:30:38;18.80;99.90
25112;DHT22;13092;51.996;4.458;2023-06-22T02:33:07;18.70;99.90
25112;DHT22;13092;51.996;4.458;2023-06-22T02:35:36;18.90;99.90
25112;DHT22;13092;51.996;4.458;2023-06-22T02:38:06;18.80;99.90
25112;DHT22;13092;51.996;4.458;2023-06-22T02:40:35;18.70;99.90
25112;DHT22;13092;51.996;4.458;2023-06-22T02:43:06;18.70;99.90
25112;DHT22;13092;51.996;4.458;2023-06-22T02:45:34;18.70;99.90
25112;DHT22;13092;51.996;4.458;2023-06-22T02:48:08;18.70;99.90
25112;DHT22;13092;51.996;4.458;2023-06-22T02:50:36;18.60;99.90
25112;DHT22;13092;51.996;4.458;2023-06-22T02:53:04;18.60;99.90
25112;DHT22;13092;51.996;4.458;2023-06-22T02:55:33;18.60;99.90
25112;DHT22;13092;51.996;4.458;2023-06-22T02:58:01;18.60;99.90
25112;DHT22;13092;51.996;4.458;2023-06-22T03:00:32;18.60;99.90
25112;DHT22;13092;51.996;4.458;2023-06-22T03:03:01;18.40;99.90
25112;DHT22;13092;51.996;4.458;2023-06-22T03:05:31;18.40;99.90
25112;DHT22;13092;51.996;4.458;2023-06-22T03:07:59;18.30;99.90
25112;DHT22;13092;51.996;4.458;2023-06-22T03:10:28;18.30;99.90
25112;DHT22;13092;51.996;4.458;2023-06-22T03:12:58;18.30;99.90
25112;DHT22;13092;51.996;4.458;2023-06-22T03:15:27;18.30;99.90
25112;DHT22;13092;51.996;4.458;2023-06-22T03:17:58;18.40;99.90
25112;DHT22;13092;51.996;4.458;2023-06-22T03:20:26;18.20;99.90
25112;DHT22;13092;51.996;4.458;2023-06-22T03:23:02;18.20;99.90
25112;DHT22;13092;51.996;4.458;2023-06-22T03:25:32;18.20;99.90
25112;DHT22;13092;51.996;4.458;2023-06-22T03:28:01;18.30;99.90
25112;DHT22;13092;51.996;4.458;2023-06-22T03:30:31;18.20;99.90
25112;DHT22;13092;51.996;4.458;2023-06-22T03:33:01;18.20;99.90
25112;DHT22;13092;51.996;4.458;2023-06-22T03:35:29;18.10;99.90
25112;DHT22;13092;51.996;4.458;2023-06-22T03:37:58;18.20;99.90
25112;DHT22;13092;51.996;4.458;2023-06-22T03:40:28;18.40;99.90
25112;DHT22;13092;51.996;4.458;2023-06-22T03:42:56;18.30;99.90
25112;DHT22;13092;51.996;4.458;2023-06-22T03:45:28;18.50;99.90
25112;DHT22;13092;51.996;4.458;2023-06-22T03:48:00;18.40;99.90
25112;DHT22;13092;51.996;4.458;2023-06-22T03:50:31;18.30;99.90
25112;DHT22;13092;51.996;4.458;2023-06-22T03:52:59;18.30;99.90
25112;DHT22;13092;51.996;4.458;2023-06-22T03:55:29;18.30;99.90
25112;DHT22;13092;51.996;4.458;2023-06-22T03:57:57;18.30;99.90
25112;DHT22;13092;51.996;4.458;2023-06-22T04:00:30;18.40;99.90
25112;DHT22;13092;51.996;4.458;2023-06-22T04:02:58;18.40;99.90
25112;DHT22;13092;51.996;4.458;2023-06-22T04:05:27;18.30;99.90
25112;DHT22;13092;51.996;4.458;2023-06-22T04:07:56;18.30;99.90
25112;DHT22;13092;51.996;4.458;2023-06-22T04:10:24;18.30;99.90
25112;DHT22;13092;51.996;4.458;2023-06-22T04:12:54;18.30;99.90
25112;DHT22;13092;51.996;4.458;2023-06-22T04:15:25;18.30;99.90
25112;DHT22;13092;51.996;4.458;2023-06-22T04:17:55;18.30;99.90
25112;DHT22;13092;51.996;4.458;2023-06-22T04:20:24;18.30;99.90
25112;DHT22;13092;51.996;4.458;2023-06-22T04:22:56;18.40;99.90
25112;DHT22;13092;51.996;4.458;2023-06-22T04:25:24;18.40;99.90
25112;DHT22;13092;51.996;4.458;2023-06-22T04:27:53;18.50;99.90
25112;DHT22;13092;51.996;4.458;2023-06-22T04:30:22;18.50;99.90
25112;DHT22;13092;51.996;4.458;2023-06-22T04:32:50;18.60;99.90
25112;DHT22;13092;51.996;4.458;2023-06-22T04:35:23;18.40;99.90
25112;DHT22;13092;51.996;4.458;2023-06-22T04:37:53;18.60;99.90
25112;DHT22;13092;51.996;4.458;2023-06-22T04:40:24;18.60;99.90
25112;DHT22;13092;51.996;4.458;2023-06-22T04:42:57;18.70;99.90
25112;DHT22;13092;51.996;4.458;2023-06-22T04:45:29;18.80;99.90
25112;DHT22;13092;51.996;4.458;2023-06-22T04:47:58;19.00;99.90
25112;DHT22;13092;51.996;4.458;2023-06-22T04:50:27;19.20;99.90
25112;DHT22;13092;51.996;4.458;2023-06-22T04:52:56;19.30;99.90
25112;DHT22;13092;51.996;4.458;2023-06-22T04:55:24;19.40;99.90
25112;DHT22;13092;51.996;4.458;2023-06-22T04:57:54;19.60;99.90
25112;DHT22;13092;51.996;4.458;2023-06-22T05:00:22;19.70;99.90
25112;DHT22;13092;51.996;4.458;2023-06-22T05:02:51;19.70;99.90
25112;DHT22;13092;51.996;4.458;2023-06-22T05:05:36;19.80;99.90
25112;DHT22;13092;51.996;4.458;2023-06-22T05:08:05;19.80;99.90
25112;DHT22;13092;51.996;4.458;2023-06-22T05:10:36;19.80;99.90
25112;DHT22;13092;51.996;4.458;2023-06-22T05:13:22;20.00;99.90
25112;DHT22;13092;51.996;4.458;2023-06-22T05:16:02;20.30;99.90
25112;DHT22;13092;51.996;4.458;2023-06-22T05:18:32;20.30;99.90
25112;DHT22;13092;51.996;4.458;2023-06-22T05:21:02;20.40;99.90
25112;DHT22;13092;51.996;4.458;2023-06-22T05:23:30;20.50;99.90
25112;DHT22;13092;51.996;4.458;2023-06-22T05:25:59;20.70;99.90
25112;DHT22;13092;51.996;4.458;2023-06-22T05:28:29;20.70;99.90
25112;DHT22;13092;51.996;4.458;2023-06-22T05:30:57;20.70;99.90
25112;DHT22;13092;51.996;4.458;2023-06-22T05:33:25;20.50;99.90
25112;DHT22;13092;51.996;4.458;2023-06-22T05:35:54;20.60;99.90
25112;DHT22;13092;51.996;4.458;2023-06-22T05:38:22;20.50;99.90
25112;DHT22;13092;51.996;4.458;2023-06-22T05:40:53;20.50;99.90
25112;DHT22;13092;51.996;4.458;2023-06-22T05:43:22;20.60;99.90
25112;DHT22;13092;51.996;4.458;2023-06-22T05:45:51;20.50;99.90
25112;DHT22;13092;51.996;4.458;2023-06-22T05:48:20;20.60;99.90
25112;DHT22;13092;51.996;4.458;2023-06-22T05:50:49;20.70;99.90
25112;DHT22;13092;51.996;4.458;2023-06-22T05:53:17;20.60;99.90
25112;DHT22;13092;51.996;4.458;2023-06-22T05:55:48;20.60;99.90
25112;DHT22;13092;51.996;4.458;2023-06-22T05:58:16;20.60;99.90
25112;DHT22;13092;51.996;4.458;2023-06-22T06:00:44;20.70;99.90
25112;DHT22;13092;51.996;4.458;2023-06-22T06:03:21;20.60;99.90
25112;DHT22;13092;51.996;4.458;2023-06-22T06:05:50;20.70;99.90
25112;DHT22;13092;51.996;4.458;2023-06-22T06:08:18;20.80;99.90
25112;DHT22;13092;51.996;4.458;2023-06-22T06:10:47;20.80;99.90
25112;DHT22;13092;51.996;4.458;2023-06-22T06:13:15;20.80;99.90
25112;DHT22;13092;51.996;4.458;2023-06-22T06:15:45;20.80;99.90
25112;DHT22;13092;51.996;4.458;2023-06-22T06:18:16;20.90;99.90
25112;DHT22;13092;51.996;4.458;2023-06-22T06:20:44;21.00;99.90
25112;DHT22;13092;51.996;4.458;2023-06-22T06:23:12;21.10;99.90
25112;DHT22;13092;51.996;4.458;2023-06-22T06:25:41;21.00;99.90
25112;DHT22;13092;51.996;4.458;2023-06-22T06:28:09;21.20;99.90
25112;DHT22;13092;51.996;4.458;2023-06-22T06:30:37;21.20;99.90
25112;DHT22;13092;51.996;4.458;2023-06-22T06:33:06;21.00;99.90
25112;DHT22;13092;51.996;4.458;2023-06-22T06:35:37;21.10;99.90
25112;DHT22;13092;51.996;4.458;2023-06-22T06:38:05;21.20;99.90
25112;DHT22;13092;51.996;4.458;2023-06-22T06:40:34;21.20;99.90
25112;DHT22;13092;51.996;4.458;2023-06-22T06:43:03;21.30;99.90
25112;DHT22;13092;51.996;4.458;2023-06-22T06:45:31;21.60;99.90
25112;DHT22;13092;51.996;4.458;2023-06-22T06:48:01;21.50;99.90
25112;DHT22;13092;51.996;4.458;2023-06-22T06:50:30;21.60;99.90
25112;DHT22;13092;51.996;4.458;2023-06-22T06:53:01;21.60;99.90
25112;DHT22;13092;51.996;4.458;2023-06-22T06:55:29;21.70;99.90
25112;DHT22;13092;51.996;4.458;2023-06-22T06:58:00;21.70;99.90
25112;DHT22;13092;51.996;4.458;2023-06-22T07:00:29;21.70;99.90
25112;DHT22;13092;51.996;4.458;2023-06-22T07:02:58;21.90;99.90
25112;DHT22;13092;51.996;4.458;2023-06-22T07:05:27;22.00;99.90
25112;DHT22;13092;51.996;4.458;2023-06-22T07:07:55;22.10;99.90
25112;DHT22;13092;51.996;4.458;2023-06-22T07:10:31;22.10;99.90
25112;DHT22;13092;51.996;4.458;2023-06-22T07:13:00;22.20;99.90
25112;DHT22;13092;51.996;4.458;2023-06-22T07:15:28;22.30;99.90
25112;DHT22;13092;51.996;4.458;2023-06-22T07:17:56;22.40;99.90
25112;DHT22;13092;51.996;4.458;2023-06-22T07:20:27;22.50;99.90
25112;DHT22;13092;51.996;4.458;2023-06-22T07:22:56;22.60;99.90
25112;DHT22;13092;51.996;4.458;2023-06-22T07:25:26;22.70;99.90
25112;DHT22;13092;51.996;4.458;2023-06-22T07:27:59;22.90;99.90
25112;DHT22;13092;51.996;4.458;2023-06-22T07:30:28;23.00;99.90
25112;DHT22;13092;51.996;4.458;2023-06-22T07:33:04;23.00;99.90
25112;DHT22;13092;51.996;4.458;2023-06-22T07:35:35;23.10;99.90
25112;DHT22;13092;51.996;4.458;2023-06-22T07:38:04;23.10;99.90
25112;DHT22;13092;51.996;4.458;2023-06-22T07:40:34;23.20;99.90
25112;DHT22;13092;51.996;4.458;2023-06-22T07:43:03;23.30;99.90
25112;DHT22;13092;51.996;4.458;2023-06-22T07:45:31;23.30;99.90
25112;DHT22;13092;51.996;4.458;2023-06-22T07:48:02;23.30;99.90
25112;DHT22;13092;51.996;4.458;2023-06-22T07:50:31;23.40;99.90
25112;DHT22;13092;51.996;4.458;2023-06-22T07:52:59;23.40;99.90
25112;DHT22;13092;51.996;4.458;2023-06-22T07:55:28;23.50;99.90
25112;DHT22;13092;51.996;4.458;2023-06-22T07:57:58;23.40;99.90
25112;DHT22;13092;51.996;4.458;2023-06-22T08:00:26;23.80;99.90
25112;DHT22;13092;51.996;4.458;2023-06-22T08:02:55;23.90;99.90
25112;DHT22;13092;51.996;4.458;2023-06-22T08:05:24;24.00;99.90
25112;DHT22;13092;51.996;4.458;2023-06-22T08:07:52;24.10;99.90
25112;DHT22;13092;51.996;4.458;2023-06-22T08:10:21;24.10;99.90
25112;DHT22;13092;51.996;4.458;2023-06-22T08:12:50;24.30;99.90
25112;DHT22;13092;51.996;4.458;2023-06-22T08:15:21;24.50;99.90
25112;DHT22;13092;51.996;4.458;2023-06-22T08:17:49;24.50;99.90
25112;DHT22;13092;51.996;4.458;2023-06-22T08:20:19;24.50;99.90
25112;DHT22;13092;51.996;4.458;2023-06-22T08:22:50;24.60;99.90
25112;DHT22;13092;51.996;4.458;2023-06-22T08:25:18;24.60;99.90
25112;DHT22;13092;51.996;4.458;2023-06-22T08:27:48;24.70;99.90
25112;DHT22;13092;51.996;4.458;2023-06-22T08:30:17;24.80;99.90
25112;DHT22;13092;51.996;4.458;2023-06-22T08:32:49;24.90;99.90
25112;DHT22;13092;51.996;4.458;2023-06-22T08:35:17;25.00;99.90
25112;DHT22;13092;51.996;4.458;2023-06-22T08:37:47;25.10;99.90
25112;DHT22;13092;51.996;4.458;2023-06-22T08:40:20;25.30;99.90
25112;DHT22;13092;51.996;4.458;2023-06-22T08:42:48;25.20;99.90
25112;DHT22;13092;51.996;4.458;2023-06-22T08:45:17;25.20;99.90
25112;DHT22;13092;51.996;4.458;2023-06-22T08:47:47;25.30;99.90
25112;DHT22;13092;51.996;4.458;2023-06-22T08:50:16;25.50;99.90
25112;DHT22;13092;51.996;4.458;2023-06-22T08:52:44;25.60;99.90
25112;DHT22;13092;51.996;4.458;2023-06-22T08:55:24;25.70;99.90
25112;DHT22;13092;51.996;4.458;2023-06-22T08:57:53;25.80;99.90
25112;DHT22;13092;51.996;4.458;2023-06-22T09:00:33;25.90;99.90
25112;DHT22;13092;51.996;4.458;2023-06-22T09:03:06;26.00;99.90
25112;DHT22;13092;51.996;4.458;2023-06-22T09:05:37;26.20;99.90
25112;DHT22;13092;51.996;4.458;2023-06-22T09:08:06;26.40;99.90
25112;DHT22;13092;51.996;4.458;2023-06-22T09:10:34;26.50;99.90
25112;DHT22;13092;51.996;4.458;2023-06-22T09:13:02;26.50;99.90
25112;DHT22;13092;51.996;4.458;2023-06-22T09:15:31;26.50;99.90
25112;DHT22;13092;51.996;4.458;2023-06-22T09:18:00;26.50;99.90
25112;DHT22;13092;51.996;4.458;2023-06-22T09:20:30;26.40;99.90
25112;DHT22;13092;51.996;4.458;2023-06-22T09:22:59;26.40;99.90
25112;DHT22;13092;51.996;4.458;2023-06-22T09:25:29;26.50;99.90
25112;DHT22;13092;51.996;4.458;2023-06-22T09:27:57;26.70;99.90
25112;DHT22;13092;51.996;4.458;2023-06-22T09:30:26;26.70;99.90
25112;DHT22;13092;51.996;4.458;2023-06-22T09:32:55;26.80;99.90
25112;DHT22;13092;51.996;4.458;2023-06-22T09:35:23;26.80;99.90
25112;DHT22;13092;51.996;4.458;2023-06-22T09:37:53;26.90;99.90
25112;DHT22;13092;51.996;4.458;2023-06-22T09:40:22;26.80;99.90
25112;DHT22;13092;51.996;4.458;2023-06-22T09:42:50;26.70;99.90
25112;DHT22;13092;51.996;4.458;2023-06-22T09:45:20;26.50;99.90
25112;DHT22;13092;51.996;4.458;2023-06-22T09:47:50;26.60;99.90
25112;DHT22;13092;51.996;4.458;2023-06-22T09:50:19;26.60;99.90
25112;DHT22;13092;51.996;4.458;2023-06-22T09:52:47;26.60;99.90
25112;DHT22;13092;51.996;4.458;2023-06-22T09:55:23;26.60;99.90
25112;DHT22;13092;51.996;4.458;2023-06-22T09:57:51;26.60;99.90
25112;DHT22;13092;51.996;4.458;2023-06-22T10:00:21;26.70;99.90
25112;DHT22;13092;51.996;4.458;2023-06-22T10:02:49;26.80;99.90
25112;DHT22;13092;51.996;4.458;2023-06-22T10:05:19;26.60;99.90
25112;DHT22;13092;51.996;4.458;2023-06-22T10:07:47;26.70;99.90
25112;DHT22;13092;51.996;4.458;2023-06-22T10:10:16;26.80;99.90
25112;DHT22;13092;51.996;4.458;2023-06-22T10:12:47;27.00;99.90
25112;DHT22;13092;51.996;4.458;2023-06-22T10:15:15;27.00;99.90
25112;DHT22;13092;51.996;4.458;2023-06-22T10:17:47;26.90;99.90
25112;DHT22;13092;51.996;4.458;2023-06-22T10:20:16;26.70;99.90
25112;DHT22;13092;51.996;4.458;2023-06-22T10:22:45;26.70;99.90
25112;DHT22;13092;51.996;4.458;2023-06-22T10:25:14;26.70;99.90
25112;DHT22;13092;51.996;4.458;2023-06-22T10:27:42;26.60;99.90
25112;DHT22;13092;51.996;4.458;2023-06-22T10:30:13;26.70;99.90
25112;DHT22;13092;51.996;4.458;2023-06-22T10:32:42;26.70;99.90
25112;DHT22;13092;51.996;4.458;2023-06-22T10:35:11;26.80;99.90
25112;DHT22;13092;51.996;4.458;2023-06-22T10:37:41;26.80;99.90
25112;DHT22;13092;51.996;4.458;2023-06-22T10:40:11;26.70;99.90
25112;DHT22;13092;51.996;4.458;2023-06-22T10:42:40;26.60;99.90
25112;DHT22;13092;51.996;4.458;2023-06-22T10:45:09;26.60;99.90
25112;DHT22;13092;51.996;4.458;2023-06-22T10:47:38;26.50;99.90
25112;DHT22;13092;51.996;4.458;2023-06-22T10:50:09;26.50;99.90
25112;DHT22;13092;51.996;4.458;2023-06-22T10:52:38;26.50;99.90
25112;DHT22;13092;51.996;4.458;2023-06-22T10:55:07;26.40;99.90
25112;DHT22;13092;51.996;4.458;2023-06-22T10:57:36;26.40;99.90
25112;DHT22;13092;51.996;4.458;2023-06-22T11:00:07;26.30;99.90
25112;DHT22;13092;51.996;4.458;2023-06-22T11:02:39;26.30;99.90
25112;DHT22;13092;51.996;4.458;2023-06-22T11:05:08;26.40;99.90
25112;DHT22;13092;51.996;4.458;2023-06-22T11:07:37;26.40;99.90
25112;DHT22;13092;51.996;4.458;2023-06-22T11:10:06;26.30;99.90
25112;DHT22;13092;51.996;4.458;2023-06-22T11:12:35;26.30;99.90
25112;DHT22;13092;51.996;4.458;2023-06-22T11:15:07;26.30;99.90
25112;DHT22;13092;51.996;4.458;2023-06-22T11:17:36;26.20;99.90
25112;DHT22;13092;51.996;4.458;2023-06-22T11:20:07;26.30;99.90
25112;DHT22;13092;51.996;4.458;2023-06-22T11:22:41;26.40;99.90
25112;DHT22;13092;51.996;4.458;2023-06-22T11:25:09;26.60;99.90
25112;DHT22;13092;51.996;4.458;2023-06-22T11:27:39;26.70;99.90
25112;DHT22;13092;51.996;4.458;2023-06-22T11:30:08;26.70;99.90
25112;DHT22;13092;51.996;4.458;2023-06-22T11:32:37;26.60;99.90
25112;DHT22;13092;51.996;4.458;2023-06-22T11:35:08;26.40;99.90
25112;DHT22;13092;51.996;4.458;2023-06-22T11:37:36;26.40;99.90
25112;DHT22;13092;51.996;4.458;2023-06-22T11:40:05;26.50;99.90
25112;DHT22;13092;51.996;4.458;2023-06-22T11:42:35;26.50;99.90
25112;DHT22;13092;51.996;4.458;2023-06-22T11:45:06;26.40;99.90
25112;DHT22;13092;51.996;4.458;2023-06-22T11:47:34;26.40;99.90
25112;DHT22;13092;51.996;4.458;2023-06-22T11:50:03;26.50;99.90
25112;DHT22;13092;51.996;4.458;2023-06-22T11:52:34;26.40;99.90
25112;DHT22;13092;51.996;4.458;2023-06-22T11:55:04;26.40;99.90
25112;DHT22;13092;51.996;4.458;2023-06-22T11:57:35;26.30;99.90
25112;DHT22;13092;51.996;4.458;2023-06-22T12:00:04;26.20;99.90
25112;DHT22;13092;51.996;4.458;2023-06-22T12:02:40;26.00;99.90
25112;DHT22;13092;51.996;4.458;2023-06-22T12:05:09;26.00;99.90
25112;DHT22;13092;51.996;4.458;2023-06-22T12:07:39;26.00;99.90
25112;DHT22;13092;51.996;4.458;2023-06-22T12:10:08;26.00;99.90
25112;DHT22;13092;51.996;4.458;2023-06-22T12:12:36;25.90;99.90
25112;DHT22;13092;51.996;4.458;2023-06-22T12:15:05;25.90;99.90
25112;DHT22;13092;51.996;4.458;2023-06-22T12:17:34;25.90;99.90
25112;DHT22;13092;51.996;4.458;2023-06-22T12:20:04;25.80;99.90
25112;DHT22;13092;51.996;4.458;2023-06-22T12:22:32;25.90;99.90
25112;DHT22;13092;51.996;4.458;2023-06-22T12:25:03;25.80;99.90
25112;DHT22;13092;51.996;4.458;2023-06-22T12:27:31;25.70;99.90
25112;DHT22;13092;51.996;4.458;2023-06-22T12:29:59;25.70;99.90
25112;DHT22;13092;51.996;4.458;2023-06-22T12:32:27;25.80;99.90
25112;DHT22;13092;51.996;4.458;2023-06-22T12:34:56;25.90;99.90
25112;DHT22;13092;51.996;4.458;2023-06-22T12:37:27;25.90;99.90
25112;DHT22;13092;51.996;4.458;2023-06-22T12:39:56;25.80;99.90
25112;DHT22;13092;51.996;4.458;2023-06-22T12:42:25;25.70;99.90
25112;DHT22;13092;51.996;4.458;2023-06-22T12:44:58;25.70;99.90
25112;DHT22;13092;51.996;4.458;2023-06-22T14:00:43;24.80;99.90
25112;DHT22;13092;51.996;4.458;2023-06-22T14:51:59;24.20;99.90
25112;DHT22;13092;51.996;4.458;2023-06-22T14:58:13;24.20;99.90
25112;DHT22;13092;51.996;4.458;2023-06-22T15:14:59;24.30;99.90
25112;DHT22;13092;51.996;4.458;2023-06-22T15:24:37;24.30;99.90
25112;DHT22;13092;51.996;4.458;2023-06-22T15:41:24;24.00;99.90
25112;DHT22;13092;51.996;4.458;2023-06-22T15:45:06;23.90;99.90
25112;DHT22;13092;51.996;4.458;2023-06-22T15:51:30;23.50;99.90
25112;DHT22;13092;51.996;4.458;2023-06-22T16:01:25;23.30;99.90
25112;DHT22;13092;51.996;4.458;2023-06-22T16:04:04;23.30;99.90
25112;DHT22;13092;51.996;4.458;2023-06-22T16:10:23;23.60;99.90
25112;DHT22;13092;51.996;4.458;2023-06-22T16:13:23;23.50;99.90
25112;DHT22;13092;51.996;4.458;2023-06-22T16:17:17;23.60;99.90
25112;DHT22;13092;51.996;4.458;2023-06-22T16:20:52;23.40;99.90
25112;DHT22;13092;51.996;4.458;2023-06-22T16:35:49;23.20;99.90
25112;DHT22;13092;51.996;4.458;2023-06-22T16:39:26;23.20;99.90
25112;DHT22;13092;51.996;4.458;2023-06-22T16:42:49;23.10;99.90
25112;DHT22;13092;51.996;4.458;2023-06-22T16:52:44;23.10;99.90
25112;DHT22;13092;51.996;4.458;2023-06-22T17:03:29;23.20;99.90
25112;DHT22;13092;51.996;4.458;2023-06-22T17:10:35;23.10;99.90
25112;DHT22;13092;51.996;4.458;2023-06-22T17:50:21;23.60;99.90
25112;DHT22;13092;51.996;4.458;2023-06-22T21:36:46;19.50;99.90
25112;DHT22;13092;51.996;4.458;2023-06-22T22:03:03;19.30;99.90
25112;DHT22;13092;51.996;4.458;2023-06-22T22:25:39;19.20;99.90
25112;DHT22;13092;51.996;4.458;2023-06-22T22:47:25;19.20;99.90
25112;DHT22;13092;51.996;4.458;2023-06-22T23:29:15;18.90;99.90
25112;DHT22;13092;51.996;4.458;2023-06-22T23:36:23;18.80;99.90
